createdAt,value
2019-03-16T00:01:12.884Z,3.60
2019-03-16T00:03:41.473Z,3.60
2019-03-16T00:06:10.384Z,3.60
2019-03-16T00:08:39.305Z,3.60
2019-03-16T00:11:08.371Z,3.60
2019-03-16T00:13:37.386Z,3.50
2019-03-16T00:16:06.422Z,3.50
2019-03-16T00:18:35.437Z,3.50
2019-03-16T00:21:04.765Z,3.50
2019-03-16T00:23:33.730Z,3.60
2019-03-16T00:26:02.636Z,3.70
2019-03-16T00:28:31.670Z,3.70
2019-03-16T00:31:00.619Z,3.70
2019-03-16T00:33:29.491Z,3.70
2019-03-16T00:35:58.477Z,3.70
2019-03-16T00:38:27.763Z,3.70
2019-03-16T00:40:56.728Z,3.70
2019-03-16T00:43:25.690Z,3.60
2019-03-16T00:45:54.656Z,3.60
2019-03-16T00:48:23.544Z,3.50
2019-03-16T00:50:52.685Z,3.50
2019-03-16T00:53:21.634Z,3.50
2019-03-16T00:55:50.675Z,3.40
2019-03-16T00:58:30.236Z,3.50
2019-03-16T01:00:59.175Z,3.50
2019-03-16T01:03:28.179Z,3.50
2019-03-16T01:05:57.130Z,3.60
2019-03-16T01:12:08.736Z,3.60
2019-03-16T01:14:37.701Z,3.60
2019-03-16T01:17:30.939Z,3.60
2019-03-16T01:19:59.930Z,3.60
2019-03-16T01:23:13.263Z,3.70
2019-03-16T01:25:42.248Z,3.80
2019-03-16T01:28:55.169Z,3.80
2019-03-16T01:34:44.192Z,3.80
2019-03-16T01:40:31.382Z,3.90
2019-03-16T01:43:31.357Z,3.90
2019-03-16T01:46:00.346Z,4.00
2019-03-16T01:48:29.305Z,4.00
2019-03-16T01:50:58.304Z,4.00
2019-03-16T01:53:27.221Z,4.00
2019-03-16T01:55:56.126Z,3.90
2019-03-16T02:05:08.608Z,3.80
2019-03-16T02:07:37.551Z,3.90
2019-03-16T02:10:08.042Z,3.80
2019-03-16T02:12:36.982Z,3.80
2019-03-16T02:15:08.564Z,3.80
2019-03-16T02:17:50.078Z,3.80
2019-03-16T02:20:19.054Z,3.80
2019-03-16T02:22:56.438Z,3.80
2019-03-16T02:25:25.341Z,3.80
2019-03-16T02:28:24.168Z,3.70
2019-03-16T02:30:53.132Z,3.70
2019-03-16T02:33:59.726Z,3.70
2019-03-16T02:37:05.794Z,3.70
2019-03-16T02:39:34.759Z,3.70
2019-03-16T02:42:47.203Z,3.70
2019-03-16T02:45:16.169Z,3.60
2019-03-16T02:50:55.047Z,3.70
2019-03-16T02:58:54.796Z,3.80
2019-03-16T03:08:30.282Z,3.80
2019-03-16T03:10:59.192Z,3.80
2019-03-16T03:16:53.221Z,3.60
2019-03-16T03:19:23.537Z,3.60
2019-03-16T03:22:33.409Z,3.60
2019-03-16T03:25:02.354Z,3.60
2019-03-16T03:27:31.368Z,3.60
2019-03-16T03:30:00.508Z,3.60
2019-03-16T03:32:29.732Z,3.60
2019-03-16T03:34:58.652Z,3.50
2019-03-16T03:38:02.593Z,3.50
2019-03-16T03:40:31.718Z,3.50
2019-03-16T03:43:02.544Z,3.50
2019-03-16T03:45:31.503Z,3.50
2019-03-16T03:59:04.289Z,3.60
2019-03-16T04:04:57.432Z,3.70
2019-03-16T04:07:56.208Z,3.70
2019-03-16T04:10:25.159Z,3.70
2019-03-16T04:16:09.302Z,3.70
2019-03-16T04:18:38.459Z,3.60
2019-03-16T04:21:08.260Z,3.60
2019-03-16T04:27:23.678Z,3.60
2019-03-16T04:29:02.874Z,3.60
2019-03-16T04:34:52.237Z,3.70
2019-03-16T04:37:21.224Z,3.60
2019-03-16T04:39:50.230Z,3.50
2019-03-16T04:45:32.673Z,3.50
2019-03-16T04:48:01.562Z,3.40
2019-03-16T04:50:30.508Z,3.40
2019-03-16T04:59:13.137Z,3.70
2019-03-16T05:01:42.104Z,3.70
2019-03-16T05:04:11.095Z,3.70
2019-03-16T05:09:42.429Z,3.80
2019-03-16T05:14:10.068Z,3.80
2019-03-16T05:21:08.872Z,3.60
2019-03-16T05:30:30.629Z,3.60
2019-03-16T05:36:02.675Z,3.50
2019-03-16T05:50:57.396Z,3.40
2019-03-16T05:59:29.590Z,3.50
2019-03-16T06:01:58.518Z,3.40
2019-03-16T06:04:27.502Z,3.40
2019-03-16T06:07:11.295Z,3.30
2019-03-16T06:09:40.213Z,3.30
2019-03-16T06:15:25.613Z,3.40
2019-03-16T06:20:56.178Z,3.30
2019-03-16T06:23:25.217Z,3.30
2019-03-16T06:25:54.210Z,3.20
2019-03-16T06:28:23.239Z,3.20
2019-03-16T06:30:52.162Z,3.20
2019-03-16T06:33:21.131Z,3.20
2019-03-16T06:35:50.018Z,3.10
2019-03-16T06:38:32.604Z,3.20
2019-03-16T06:41:01.568Z,3.20
2019-03-16T06:43:30.468Z,3.30
2019-03-16T06:49:31.319Z,3.40
2019-03-16T06:52:02.528Z,3.40
2019-03-16T06:57:25.595Z,3.30
2019-03-16T07:07:00.775Z,3.40
2019-03-16T07:10:00.162Z,3.30
2019-03-16T07:12:56.454Z,3.30
2019-03-16T07:15:13.647Z,3.20
2019-03-16T07:17:52.134Z,3.30
2019-03-16T07:20:27.715Z,3.30
2019-03-16T07:23:02.028Z,3.30
2019-03-16T07:26:32.680Z,3.30
2019-03-16T07:29:02.568Z,3.30
2019-03-16T07:34:47.300Z,3.40
2019-03-16T07:37:45.681Z,3.40
2019-03-16T07:40:34.143Z,3.50
2019-03-16T07:43:03.223Z,3.50
2019-03-16T07:45:32.699Z,3.50
2019-03-16T07:48:01.699Z,3.50
2019-03-16T07:50:30.727Z,3.50
2019-03-16T07:53:01.612Z,3.40
2019-03-16T07:55:31.135Z,3.40
2019-03-16T07:58:01.147Z,3.40
2019-03-16T08:00:30.385Z,3.40
2019-03-16T08:03:00.766Z,3.40
2019-03-16T08:05:29.780Z,3.40
2019-03-16T08:08:01.832Z,3.40
2019-03-16T08:16:31.105Z,3.50
2019-03-16T08:19:00.564Z,3.50
2019-03-16T08:21:42.367Z,3.50
2019-03-16T08:24:14.946Z,3.50
2019-03-16T08:26:47.363Z,3.50
2019-03-16T08:29:16.262Z,3.50
2019-03-16T08:31:46.655Z,3.50
2019-03-16T08:34:16.220Z,3.50
2019-03-16T08:36:48.310Z,3.50
2019-03-16T08:39:17.389Z,3.50
2019-03-16T08:42:27.091Z,3.50
2019-03-16T08:44:58.019Z,3.50
2019-03-16T08:47:27.014Z,3.60
2019-03-16T08:49:56.098Z,3.50
2019-03-16T08:52:26.252Z,3.50
2019-03-16T08:54:59.828Z,3.50
2019-03-16T08:57:29.125Z,3.60
2019-03-16T08:59:58.703Z,3.60
2019-03-16T09:02:28.749Z,3.60
2019-03-16T09:04:58.349Z,3.70
2019-03-16T09:07:31.321Z,3.70
2019-03-16T09:10:00.566Z,3.70
2019-03-16T09:12:29.942Z,3.70
2019-03-16T09:15:00.265Z,3.70
2019-03-16T09:17:29.754Z,3.70
2019-03-16T09:19:59.587Z,3.80
2019-03-16T09:22:29.783Z,3.80
2019-03-16T09:25:00.880Z,3.80
2019-03-16T09:27:31.430Z,3.80
2019-03-16T09:30:00.993Z,3.90
2019-03-16T09:32:35.983Z,3.90
2019-03-16T09:35:05.961Z,3.90
2019-03-16T09:37:36.284Z,3.90
2019-03-16T09:40:22.003Z,3.90
2019-03-16T09:42:52.835Z,4.00
2019-03-16T09:45:22.382Z,4.00
2019-03-16T09:47:52.586Z,4.10
2019-03-16T09:50:24.122Z,4.10
2019-03-16T09:52:54.632Z,4.10
2019-03-16T09:55:23.814Z,4.00
2019-03-16T09:57:54.668Z,4.00
2019-03-16T10:00:24.143Z,4.00
2019-03-16T10:05:49.989Z,4.10
2019-03-16T10:08:19.364Z,4.10
2019-03-16T10:10:48.539Z,4.10
2019-03-16T10:13:17.635Z,4.20
2019-03-16T10:15:46.564Z,4.20
2019-03-16T10:18:15.518Z,4.20
2019-03-16T10:20:44.520Z,4.10
2019-03-16T10:23:30.218Z,4.10
2019-03-16T10:25:59.218Z,4.00
2019-03-16T10:35:16.752Z,4.00
2019-03-16T10:37:45.689Z,4.00
2019-03-16T10:40:15.231Z,4.00
2019-03-16T10:42:44.243Z,3.90
2019-03-16T10:45:13.424Z,3.90
2019-03-16T10:55:29.895Z,4.00
2019-03-16T10:58:01.453Z,3.90
2019-03-16T11:00:30.434Z,3.80
2019-03-16T11:03:03.054Z,3.80
2019-03-16T11:05:32.080Z,3.80
2019-03-16T11:11:31.212Z,3.80
2019-03-16T11:14:00.169Z,3.60
2019-03-16T11:19:46.482Z,3.60
2019-03-16T11:28:37.994Z,3.40
2019-03-16T11:31:07.463Z,3.30
2019-03-16T11:40:25.244Z,3.10
2019-03-16T11:42:54.421Z,3.00
2019-03-16T11:45:23.432Z,3.10
2019-03-16T11:47:53.320Z,3.10
2019-03-16T11:50:23.242Z,3.20
2019-03-16T11:52:54.092Z,3.20
2019-03-16T11:55:29.663Z,3.10
2019-03-16T11:57:59.766Z,3.10
2019-03-16T12:00:28.855Z,3.10
2019-03-16T12:02:58.858Z,3.10
2019-03-16T12:05:29.193Z,3.10
2019-03-16T12:07:58.761Z,3.00
2019-03-16T12:10:28.071Z,3.00
2019-03-16T12:12:57.106Z,3.00
2019-03-16T12:15:27.143Z,3.10
2019-03-16T12:17:57.400Z,3.00
2019-03-16T12:20:26.443Z,3.00
2019-03-16T12:22:55.495Z,3.00
2019-03-16T12:26:16.306Z,2.90
2019-03-16T12:28:36.828Z,3.00
2019-03-16T12:31:07.561Z,3.00
2019-03-16T12:33:42.767Z,3.00
2019-03-16T12:36:11.874Z,2.90
2019-03-16T12:38:40.843Z,3.00
2019-03-16T12:41:12.229Z,3.00
2019-03-16T12:43:41.381Z,3.10
2019-03-16T12:46:10.649Z,3.00
2019-03-16T12:48:39.596Z,2.90
2019-03-16T12:51:12.651Z,2.90
2019-03-16T12:53:46.242Z,2.90
2019-03-16T12:56:15.726Z,2.90
2019-03-16T12:58:45.541Z,2.80
2019-03-16T13:01:17.353Z,2.80
2019-03-16T13:03:47.053Z,2.90
2019-03-16T13:06:19.035Z,2.90
2019-03-16T13:08:48.687Z,2.90
2019-03-16T13:11:17.996Z,2.80
2019-03-16T13:13:51.885Z,2.80
2019-03-16T13:16:30.539Z,2.90
2019-03-16T13:18:59.889Z,2.90
2019-03-16T13:21:30.403Z,2.80
2019-03-16T13:23:59.481Z,2.80
2019-03-16T13:26:30.117Z,2.80
2019-03-16T13:28:59.164Z,2.90
2019-03-16T13:31:34.610Z,2.90
2019-03-16T13:34:03.755Z,2.90
2019-03-16T13:36:36.729Z,2.80
2019-03-16T13:39:07.827Z,2.80
2019-03-16T13:41:39.816Z,2.80
2019-03-16T13:44:15.039Z,2.80
2019-03-16T13:46:45.468Z,2.70
2019-03-16T13:49:16.463Z,2.70
2019-03-16T13:51:46.049Z,2.70
2019-03-16T13:54:15.009Z,2.70
2019-03-16T13:56:53.012Z,2.80
2019-03-16T13:59:22.935Z,2.80
2019-03-16T14:01:52.311Z,2.80
2019-03-16T14:04:21.784Z,2.80
2019-03-16T14:06:51.708Z,2.90
2019-03-16T14:09:21.331Z,2.90
2019-03-16T14:11:51.446Z,2.90
2019-03-16T14:14:21.627Z,2.90
2019-03-16T14:16:52.722Z,2.90
2019-03-16T14:19:25.254Z,2.90
2019-03-16T14:21:54.026Z,2.90
2019-03-16T14:27:55.057Z,2.80
2019-03-16T14:30:39.885Z,2.80
2019-03-16T14:36:48.260Z,2.80
2019-03-16T14:39:22.514Z,2.80
2019-03-16T14:41:59.620Z,2.80
2019-03-16T14:47:27.245Z,2.80
2019-03-16T14:50:07.329Z,2.90
2019-03-16T14:52:52.828Z,2.80
2019-03-16T14:55:23.146Z,2.80
2019-03-16T15:01:35.208Z,2.70
2019-03-16T15:04:05.213Z,2.70
2019-03-16T15:06:35.391Z,2.70
2019-03-16T15:09:06.951Z,2.70
2019-03-16T15:11:36.940Z,2.60
2019-03-16T15:14:07.009Z,2.60
2019-03-16T15:16:37.749Z,2.60
2019-03-16T15:19:07.716Z,2.60
2019-03-16T15:21:37.205Z,2.60
2019-03-16T15:24:07.320Z,2.60
2019-03-16T15:26:36.420Z,2.60
2019-03-16T15:29:05.966Z,2.60
2019-03-16T15:31:35.119Z,2.60
2019-03-16T15:34:05.544Z,2.60
2019-03-16T15:36:34.740Z,2.60
2019-03-16T15:39:06.599Z,2.60
2019-03-16T15:41:36.412Z,2.60
2019-03-16T15:44:06.527Z,2.60
2019-03-16T15:46:35.854Z,2.60
2019-03-16T15:49:05.319Z,2.60
2019-03-16T15:51:35.196Z,2.60
2019-03-16T15:54:04.840Z,2.50
2019-03-16T15:56:34.777Z,2.50
2019-03-16T15:59:04.011Z,2.50
2019-03-16T16:01:33.470Z,2.50
2019-03-16T16:04:03.075Z,2.50
2019-03-16T16:06:33.621Z,2.50
2019-03-16T16:09:04.278Z,2.50
2019-03-16T16:11:34.607Z,2.40
2019-03-16T16:14:04.174Z,2.40
2019-03-16T16:16:35.998Z,2.40
2019-03-16T16:19:05.930Z,2.40
2019-03-16T16:21:36.272Z,2.40
2019-03-16T16:24:06.906Z,2.40
2019-03-16T16:26:36.094Z,2.30
2019-03-16T16:29:05.628Z,2.30
2019-03-16T16:31:34.904Z,2.30
2019-03-16T16:34:04.193Z,2.30
2019-03-16T16:36:33.288Z,2.30
2019-03-16T16:39:02.828Z,2.30
2019-03-16T16:41:32.129Z,2.30
2019-03-16T16:44:02.624Z,2.30
2019-03-16T16:46:32.945Z,2.30
2019-03-16T16:49:02.479Z,2.30
2019-03-16T16:51:32.475Z,2.30
2019-03-16T16:54:04.121Z,2.20
2019-03-16T16:56:34.371Z,2.30
2019-03-16T16:59:04.533Z,2.20
2019-03-16T17:01:34.274Z,2.20
2019-03-16T17:04:04.872Z,2.20
2019-03-16T17:06:34.100Z,2.10
2019-03-16T17:09:03.206Z,2.10
2019-03-16T17:11:33.117Z,2.10
2019-03-16T17:14:03.348Z,2.10
2019-03-16T17:16:33.982Z,2.00
2019-03-16T17:19:03.959Z,1.90
2019-03-16T17:21:33.187Z,1.90
2019-03-16T17:24:03.922Z,1.80
2019-03-16T17:26:34.235Z,1.80
2019-03-16T17:29:04.074Z,1.90
2019-03-16T17:31:42.131Z,1.80
2019-03-16T17:34:05.339Z,1.80
2019-03-16T17:36:34.721Z,1.80
2019-03-16T17:39:04.827Z,1.80
2019-03-16T17:41:34.125Z,1.70
2019-03-16T17:44:03.287Z,1.70
2019-03-16T17:46:32.519Z,1.60
2019-03-16T17:49:01.626Z,1.70
2019-03-16T17:51:30.708Z,1.70
2019-03-16T17:53:59.806Z,1.70
2019-03-16T17:56:28.897Z,1.70
2019-03-16T17:58:57.994Z,1.70
2019-03-16T18:01:27.512Z,1.70
2019-03-16T18:03:59.538Z,1.70
2019-03-16T18:06:29.456Z,1.70
2019-03-16T18:09:01.920Z,1.70
2019-03-16T18:11:30.839Z,1.60
2019-03-16T18:14:01.391Z,1.60
2019-03-16T18:16:32.355Z,1.50
2019-03-16T18:19:02.628Z,1.50
2019-03-16T18:21:31.927Z,1.50
2019-03-16T18:24:00.962Z,1.50
2019-03-16T18:26:30.175Z,1.50
2019-03-16T18:29:00.753Z,1.50
2019-03-16T18:31:29.952Z,1.50
2019-03-16T18:33:59.249Z,1.50
2019-03-16T18:36:28.339Z,1.50
2019-03-16T18:38:57.439Z,1.50
2019-03-16T18:41:26.746Z,1.50
2019-03-16T18:43:55.629Z,1.50
2019-03-16T18:46:24.932Z,1.50
2019-03-16T18:48:54.480Z,1.50
2019-03-16T18:51:23.525Z,1.50
2019-03-16T18:53:53.110Z,1.50
2019-03-16T18:56:22.946Z,1.50
2019-03-16T18:58:52.238Z,1.50
2019-03-16T19:01:21.817Z,1.50
2019-03-16T19:03:51.045Z,1.50
2019-03-16T19:06:20.757Z,1.60
2019-03-16T19:08:50.052Z,1.50
2019-03-16T19:11:19.533Z,1.50
2019-03-16T19:13:49.061Z,1.60
2019-03-16T19:16:18.308Z,1.50
2019-03-16T19:18:50.574Z,1.50
2019-03-16T19:21:20.243Z,1.50
2019-03-16T19:23:54.247Z,1.50
2019-03-16T19:26:23.632Z,1.50
2019-03-16T19:28:52.848Z,1.50
2019-03-16T19:31:21.941Z,1.50
2019-03-16T19:33:52.896Z,1.50
2019-03-16T19:36:21.769Z,1.50
2019-03-16T19:38:50.865Z,1.50
2019-03-16T19:41:20.282Z,1.50
2019-03-16T19:43:50.440Z,1.40
2019-03-16T19:46:19.590Z,1.50
2019-03-16T19:48:48.676Z,1.50
2019-03-16T19:51:17.991Z,1.50
2019-03-16T19:53:47.073Z,1.50
2019-03-16T19:56:17.347Z,1.40
2019-03-16T19:58:46.497Z,1.40
2019-03-16T20:01:16.072Z,1.50
2019-03-16T20:03:45.101Z,1.50
2019-03-16T20:06:25.223Z,1.50
2019-03-16T20:08:45.028Z,1.50
2019-03-16T20:11:14.458Z,1.50
2019-03-16T20:13:43.532Z,1.50
2019-03-16T20:16:12.827Z,1.60
2019-03-16T20:18:42.120Z,1.60
2019-03-16T20:21:12.383Z,1.60
2019-03-16T20:23:41.546Z,1.60
2019-03-16T20:26:10.759Z,1.60
2019-03-16T20:28:39.929Z,1.70
2019-03-16T20:31:09.215Z,1.60
2019-03-16T20:33:38.323Z,1.60
2019-03-16T20:36:07.627Z,1.60
2019-03-16T20:38:36.858Z,1.60
2019-03-16T20:41:06.460Z,1.60
2019-03-16T20:43:35.520Z,1.60
2019-03-16T20:46:04.820Z,1.60
2019-03-16T20:48:34.119Z,1.60
2019-03-16T20:51:03.243Z,1.60
2019-03-16T20:53:32.515Z,1.60
2019-03-16T20:56:01.617Z,1.60
2019-03-16T20:58:34.584Z,1.60
2019-03-16T21:01:03.780Z,1.60
2019-03-16T21:03:33.606Z,1.60
2019-03-16T21:06:03.111Z,1.60
2019-03-16T21:08:32.201Z,1.60
2019-03-16T21:11:01.299Z,1.60
2019-03-16T21:13:31.584Z,1.60
2019-03-16T21:16:00.718Z,1.60
2019-03-16T21:18:29.664Z,1.60
2019-03-16T21:20:59.109Z,1.70
2019-03-16T21:23:28.203Z,1.70
2019-03-16T21:25:57.302Z,1.70
2019-03-16T21:28:26.612Z,1.60
2019-03-16T21:30:55.696Z,1.70
2019-03-16T21:33:29.333Z,1.70
2019-03-16T21:35:55.522Z,1.70
2019-03-16T21:38:24.824Z,1.70
2019-03-16T21:40:53.730Z,1.70
2019-03-16T21:43:22.807Z,1.70
2019-03-16T21:45:52.001Z,1.70
2019-03-16T21:48:21.207Z,1.60
2019-03-16T21:50:51.232Z,1.70
2019-03-16T21:53:20.210Z,1.70
2019-03-16T21:55:49.507Z,1.70
2019-03-16T21:58:19.522Z,1.70
2019-03-16T22:00:48.720Z,1.70
2019-03-16T22:03:17.818Z,1.70
2019-03-16T22:05:46.909Z,1.70
2019-03-16T22:08:16.005Z,1.70
2019-03-16T22:10:45.103Z,1.70
2019-03-16T22:13:14.212Z,1.70
2019-03-16T22:15:43.240Z,1.70
2019-03-16T22:18:12.186Z,1.80
2019-03-16T22:20:41.276Z,1.80
2019-03-16T22:23:10.369Z,1.80
2019-03-16T22:25:39.468Z,1.80
2019-03-16T22:28:10.319Z,1.70
2019-03-16T22:30:39.294Z,1.70
2019-03-16T22:33:08.387Z,1.70
2019-03-16T22:35:37.688Z,1.80
2019-03-16T22:38:06.892Z,1.70
2019-03-16T22:40:36.085Z,1.80
2019-03-16T22:43:05.097Z,1.80
2019-03-16T22:45:35.643Z,1.80
2019-03-16T22:48:05.883Z,1.80
2019-03-16T22:53:30.212Z,1.90
2019-03-16T22:56:00.551Z,1.80
2019-03-16T22:58:29.540Z,1.80
2019-03-16T23:00:58.946Z,1.80
2019-03-16T23:03:28.039Z,1.80
2019-03-16T23:05:57.149Z,1.80
2019-03-16T23:08:26.231Z,1.80
2019-03-16T23:10:55.219Z,1.80
2019-03-16T23:13:24.223Z,1.80
2019-03-16T23:15:53.513Z,1.80
2019-03-16T23:18:22.608Z,1.80
2019-03-16T23:20:51.514Z,1.80
2019-03-16T23:23:20.590Z,1.80
2019-03-16T23:25:49.588Z,1.90
2019-03-16T23:28:18.784Z,1.90
2019-03-16T23:30:47.878Z,1.90
2019-03-16T23:33:36.429Z,1.90
2019-03-16T23:36:05.731Z,1.80
2019-03-16T23:38:34.820Z,1.80
2019-03-16T23:41:04.119Z,1.80
2019-03-16T23:43:33.221Z,1.80
2019-03-16T23:46:02.311Z,1.80
2019-03-16T23:48:31.411Z,1.80
2019-03-16T23:51:00.456Z,1.80
2019-03-16T23:53:29.414Z,1.80
2019-03-16T23:55:58.698Z,1.80
2019-03-16T23:58:27.788Z,1.70
